Terminal Aerodrome Forecast
Issued by NWS

Home | Current Version | Previous Version | Text Only | Print | Product List | Glossary On
Versions: 1 2 3 4 5 6 7 8 9 10 11 12 13 14
148
FTUS41 KLWX 091724
TAFMTN
TAF
KMTN 091724Z 0918/1018 06004KT 3SM -SN OVC007
     FM092100 36005KT 6SM -SHSNRA OVC015
     FM092300 33004KT 6SM -SHSN OVC020
     FM100100 30005KT 6SM -SHSN OVC025
     FM100500 28009KT P6SM OVC030
     FM100700 28009KT P6SM OVC035
     FM101600 28013G20KT P6SM BKN035
     FM101700 27013G21KT P6SM BKN030=

USA.gov is the U.S. government's official web portal to all federal, state and local government web resources and services.